Terminal Aerodrome Forecast
Issued by NWS Birmingham, AL

Home | Current Version | Previous Version | Text Only | Print | Product List | Glossary On
Versions: 1 2 3 4 5 6 7 8 9 10 11 12 13 14 15
945
FTUS44 KBMX 130520
TAFBHM
TAF
KBHM 130520Z 1306/1406 35010G17KT P6SM SKC
     FM130900 35010KT P6SM SKC
     FM131500 36012G18KT P6SM SKC=

USA.gov is the U.S. government's official web portal to all federal, state and local government web resources and services.